Time;durP1;ratioP1;P1;durP2;ratioP2;P2;SDS_P1;SDS_P2;PMS_P1;PMS_P2;Temp;Humidity;BMP_temperature;BMP_pressure;BME280_temperature;BME280_humidity;BME280_pressure;Samples;Min_cycle;Max_cycle;Signal;HPM_P1;HPM_P2
2023/03/10 00:01:25;;;;;;;;;9.00;6.20;;;;;11.66;59.99;98418.91;5031081;28;8970;-79
2023/03/10 00:03:55;;;;;;;;;4.20;4.00;;;;;11.67;60.32;98422.41;4966059;28;8909;-79
2023/03/10 00:06:26;;;;;;;;;2.80;2.80;;;;;11.57;59.98;98427.22;5014586;28;8862;-75
2023/03/10 00:08:56;;;;;;;;;3.40;3.00;;;;;11.53;60.70;98425.63;5030049;28;8849;-76
2023/03/10 00:11:25;;;;;;;;;3.00;2.00;;;;;11.68;61.54;98434.66;5014747;28;8866;-79
2023/03/10 00:13:54;;;;;;;;;5.40;5.00;;;;;11.85;62.20;98432.16;5050008;28;8872;-76
2023/03/10 00:16:25;;;;;;;;;5.80;5.80;;;;;11.89;61.31;98425.00;5049944;28;8987;-76
2023/03/10 00:18:55;;;;;;;;;5.80;5.80;;;;;11.83;60.73;98422.63;5065113;28;8837;-74
2023/03/10 00:21:25;;;;;;;;;6.20;5.00;;;;;11.88;60.19;98423.25;5031264;28;8871;-76
2023/03/10 00:23:55;;;;;;;;;5.80;5.40;;;;;11.73;60.55;98424.78;5047867;28;8892;-76
2023/03/10 00:26:26;;;;;;;;;7.40;7.20;;;;;11.81;60.96;98412.13;5052535;28;8878;-76
2023/03/10 00:28:55;;;;;;;;;2.40;2.20;;;;;11.75;59.54;98415.03;5064950;28;8907;-77
2023/03/10 00:31:27;;;;;;;;;4.80;4.80;;;;;11.73;59.01;98403.72;5047560;28;8861;-76
2023/03/10 00:33:57;;;;;;;;;6.80;5.60;;;;;11.57;59.78;98412.25;5026169;28;8903;-77
2023/03/10 00:36:28;;;;;;;;;6.20;5.80;;;;;11.82;60.53;98405.06;5064709;28;8889;-77
2023/03/10 00:38:59;;;;;;;;;1.80;1.80;;;;;11.83;60.34;98398.94;5064758;28;8883;-77
2023/03/10 00:41:30;;;;;;;;;8.00;8.00;;;;;11.86;59.73;98391.75;5030557;28;8853;-76
2023/03/10 00:44:00;;;;;;;;;3.40;3.40;;;;;11.72;58.82;98386.22;5063655;28;8882;-78
2023/03/10 00:46:32;;;;;;;;;7.40;7.40;;;;;11.45;58.75;98389.13;5033591;28;8969;-77
2023/03/10 00:49:01;;;;;;;;;8.00;8.00;;;;;11.59;60.79;98385.88;5064492;28;9931;-76
2023/03/10 00:51:30;;;;;;;;;9.40;9.40;;;;;11.64;60.34;98383.91;5031310;28;8885;-77
2023/03/10 00:54:00;;;;;;;;;7.00;6.20;;;;;11.62;60.67;98377.88;5063566;28;9643;-76
2023/03/10 00:56:30;;;;;;;;;8.00;8.00;;;;;11.59;59.95;98375.34;5048744;28;8877;-76
2023/03/10 00:59:00;;;;;;;;;12.80;11.00;;;;;11.71;60.38;98382.72;5041063;28;8862;-76
2023/03/10 01:01:32;;;;;;;;;10.80;10.20;;;;;11.85;59.85;98376.03;5031119;28;8878;-76
2023/03/10 01:04:04;;;;;;;;;9.40;8.40;;;;;11.84;60.06;98369.03;5031552;28;8869;-78
2023/03/10 01:06:34;;;;;;;;;8.80;8.20;;;;;11.90;59.73;98368.75;5011515;28;8936;-75
2023/03/10 01:09:04;;;;;;;;;9.20;9.20;;;;;11.66;58.26;98365.44;4960196;28;8885;-74
2023/03/10 01:11:34;;;;;;;;;5.80;4.40;;;;;11.66;58.88;98366.28;4988598;28;8904;-77
2023/03/10 01:14:05;;;;;;;;;8.80;7.80;;;;;11.57;59.33;98370.16;4966722;28;8887;-76
2023/03/10 01:16:35;;;;;;;;;5.80;4.80;;;;;11.59;58.50;98361.34;4990329;28;8977;-76
2023/03/10 01:19:05;;;;;;;;;5.80;5.80;;;;;11.53;58.87;98358.06;4990518;28;8858;-77
2023/03/10 01:21:36;;;;;;;;;6.40;5.60;;;;;11.63;58.89;98355.88;4941650;28;8965;-77
2023/03/10 01:24:06;;;;;;;;;8.00;8.00;;;;;11.65;58.76;98350.53;4989732;28;8960;-78
2023/03/10 01:26:36;;;;;;;;;7.40;6.20;;;;;11.64;58.63;98347.06;4990988;28;8866;-77
2023/03/10 01:29:05;;;;;;;;;3.40;3.40;;;;;11.65;57.31;98332.97;4989233;28;9650;-78
2023/03/10 01:31:34;;;;;;;;;8.40;8.40;;;;;11.81;57.96;98330.50;5019856;28;9172;-75
2023/03/10 01:34:04;;;;;;;;;7.20;6.40;;;;;11.97;58.29;98330.69;5010761;28;9645;-75
2023/03/10 01:36:32;;;;;;;;;7.80;7.80;;;;;12.06;57.79;98321.50;5009781;28;8845;-76
2023/03/10 01:39:01;;;;;;;;;11.00;10.00;;;;;12.18;59.43;98313.00;5009375;28;8878;-77
2023/03/10 01:41:30;;;;;;;;;9.20;8.40;;;;;12.22;58.50;98319.88;5009411;28;9038;-75
2023/03/10 01:44:02;;;;;;;;;10.00;9.40;;;;;12.35;59.73;98320.13;5029041;28;8972;-74
2023/03/10 01:46:52;;;;;;;;;8.80;7.60;;;;;12.51;56.51;98317.63;5025135;28;8876;-76
2023/03/10 01:49:39;;;;;;;;;6.80;6.80;;;;;12.37;55.46;98314.78;5009971;28;8906;-77
2023/03/10 01:52:11;;;;;;;;;10.00;10.00;;;;;12.28;56.73;98314.31;5025843;28;8873;-75
2023/03/10 01:54:48;;;;;;;;;10.00;10.00;;;;;12.29;57.34;98320.41;5026768;28;9020;-76
2023/03/10 01:57:22;;;;;;;;;10.20;9.00;;;;;12.32;56.73;98317.66;5046734;28;8877;-76
2023/03/10 01:59:55;;;;;;;;;6.40;6.40;;;;;12.34;59.02;98323.69;5050866;28;8872;-75
2023/03/10 02:02:26;;;;;;;;;5.00;5.00;;;;;12.40;59.61;98310.22;5046420;28;8872;-76
2023/03/10 02:04:55;;;;;;;;;9.80;8.60;;;;;12.47;60.02;98305.53;5063181;28;8865;-76
2023/03/10 02:07:29;;;;;;;;;4.60;3.80;;;;;12.55;58.68;98306.00;5063248;28;8901;-78
2023/03/10 02:09:59;;;;;;;;;5.40;5.40;;;;;12.50;58.60;98300.97;5047328;28;8845;-76
2023/03/10 02:12:27;;;;;;;;;6.00;6.00;;;;;12.52;59.35;98298.22;5043162;28;8847;-76
2023/03/10 02:14:57;;;;;;;;;9.60;8.80;;;;;12.54;60.11;98307.78;5026837;28;8867;-78
2023/03/10 02:17:28;;;;;;;;;8.00;5.00;;;;;12.59;58.95;98298.78;5042904;28;9637;-79
2023/03/10 02:20:09;;;;;;;;;5.00;5.00;;;;;12.63;59.83;98301.19;5040183;28;8836;-74
2023/03/10 02:22:38;;;;;;;;;8.40;7.60;;;;;12.58;59.89;98299.69;5028167;28;8862;-78
2023/03/10 02:25:22;;;;;;;;;5.00;5.00;;;;;12.70;60.12;98296.47;5009291;28;8872;-79
2023/03/10 02:27:54;;;;;;;;;4.00;3.80;;;;;12.66;59.96;98294.94;5024797;28;8982;-77
2023/03/10 02:30:27;;;;;;;;;11.00;10.40;;;;;12.68;59.66;98299.19;5024757;28;8860;-77
2023/03/10 02:33:00;;;;;;;;;6.40;6.40;;;;;12.69;59.18;98300.03;5022649;28;9615;-76
2023/03/10 02:35:29;;;;;;;;;10.60;9.40;;;;;12.67;58.81;98294.81;5006774;28;8862;-76
2023/03/10 02:38:03;;;;;;;;;8.80;8.80;;;;;12.64;58.02;98294.16;4989931;28;8912;-78
2023/03/10 02:40:36;;;;;;;;;7.20;7.20;;;;;12.62;59.01;98282.84;5002881;28;10143;-77
2023/03/10 02:43:18;;;;;;;;;6.00;6.00;;;;;12.65;57.16;98277.38;5018070;28;8876;-75
2023/03/10 02:45:53;;;;;;;;;5.80;5.80;;;;;12.64;59.85;98278.34;4987458;28;9675;-76
2023/03/10 02:48:28;;;;;;;;;2.00;2.00;;;;;12.70;59.85;98273.59;4987439;28;8838;-75
2023/03/10 02:51:00;;;;;;;;;7.80;6.00;;;;;12.70;58.44;98267.47;4987251;28;8885;-77
2023/03/10 02:53:30;;;;;;;;;5.00;5.00;;;;;12.68;59.10;98264.91;5026127;28;8856;-75
2023/03/10 02:56:01;;;;;;;;;4.00;4.00;;;;;12.65;58.39;98261.56;5039803;28;8856;-77
2023/03/10 02:58:34;;;;;;;;;4.40;4.00;;;;;12.59;58.33;98252.19;5007161;28;8870;-77
2023/03/10 03:01:06;;;;;;;;;2.80;2.80;;;;;12.47;57.52;98251.03;4977759;28;8852;-76
2023/03/10 03:03:40;;;;;;;;;3.00;3.00;;;;;12.39;57.01;98250.56;5010415;28;8874;-78
2023/03/10 03:06:11;;;;;;;;;3.20;3.20;;;;;12.22;56.84;98235.56;4993805;28;8870;-76
2023/03/10 03:08:40;;;;;;;;;2.60;2.60;;;;;12.04;55.92;98247.00;5007383;28;8923;-75
2023/03/10 03:11:13;;;;;;;;;3.00;2.80;;;;;12.01;56.58;98240.06;5044145;28;8865;-77
2023/03/10 03:13:43;;;;;;;;;3.20;3.20;;;;;12.02;57.41;98241.78;5029711;28;8899;-76
2023/03/10 03:16:13;;;;;;;;;2.40;2.40;;;;;12.03;56.41;98226.81;5014961;28;8844;-76
2023/03/10 03:18:43;;;;;;;;;2.80;2.00;;;;;12.04;56.71;98223.28;5095199;28;8966;-76
2023/03/10 03:21:17;;;;;;;;;1.20;1.20;;;;;12.10;57.15;98228.25;5104282;28;8830;-76
2023/03/10 03:23:47;;;;;;;;;3.40;3.40;;;;;12.21;58.11;98217.19;5104495;28;8850;-76
2023/03/10 03:26:20;;;;;;;;;3.00;3.00;;;;;12.26;58.12;98213.41;5101212;28;8872;-78
2023/03/10 03:28:52;;;;;;;;;5.00;5.00;;;;;12.30;57.25;98219.38;5037917;28;8836;-77
2023/03/10 03:31:26;;;;;;;;;3.20;3.20;;;;;12.37;57.32;98218.13;5103486;28;8857;-75
2023/03/10 03:34:09;;;;;;;;;8.40;7.20;;;;;12.30;55.90;98211.47;5057096;28;8873;-77
2023/03/10 03:36:39;;;;;;;;;4.20;3.40;;;;;12.44;58.64;98210.78;5103533;28;9594;-78
2023/03/10 03:39:10;;;;;;;;;4.40;4.00;;;;;12.40;56.77;98207.44;5063463;28;8872;-78
2023/03/10 03:41:40;;;;;;;;;5.80;5.00;;;;;12.42;56.51;98202.94;5049439;28;8840;-74
2023/03/10 03:44:12;;;;;;;;;6.00;6.00;;;;;12.35;55.48;98201.53;5062459;28;8909;-76
2023/03/10 03:46:41;;;;;;;;;5.00;5.00;;;;;12.39;56.33;98202.25;5049833;28;8832;-77
2023/03/10 03:49:10;;;;;;;;;5.60;5.00;;;;;12.37;55.80;98198.84;5063304;28;8862;-77
2023/03/10 03:51:40;;;;;;;;;4.80;4.80;;;;;12.40;56.62;98198.69;5066316;28;8860;-78
2023/03/10 03:54:09;;;;;;;;;5.20;5.20;;;;;12.43;56.72;98188.84;5066364;28;8852;-77
2023/03/10 03:56:40;;;;;;;;;5.00;5.00;;;;;12.37;55.83;98190.94;5053926;28;8878;-76
2023/03/10 03:59:13;;;;;;;;;10.80;10.00;;;;;12.39;56.36;98192.56;4998701;28;9785;-77
2023/03/10 04:01:42;;;;;;;;;7.60;7.20;;;;;12.41;57.31;98185.44;5044900;28;8928;-76
2023/03/10 04:04:11;;;;;;;;;5.00;5.00;;;;;12.38;56.13;98176.84;5003591;28;8909;-78
2023/03/10 04:06:40;;;;;;;;;9.40;9.40;;;;;12.46;56.35;98172.03;5006142;28;8886;-78
2023/03/10 04:09:12;;;;;;;;;6.80;5.60;;;;;12.52;57.63;98169.06;4989743;28;8850;-77
2023/03/10 04:11:41;;;;;;;;;9.00;9.00;;;;;12.54;58.62;98165.44;5006128;28;8873;-77
2023/03/10 04:14:12;;;;;;;;;8.20;8.20;;;;;12.59;58.79;98162.56;5005887;28;8896;-75
2023/03/10 04:16:41;;;;;;;;;9.40;6.20;;;;;12.65;57.29;98158.75;5004767;28;8959;-76
2023/03/10 04:19:10;;;;;;;;;6.60;5.80;;;;;12.61;56.23;98160.69;5006028;28;8916;-76
2023/03/10 04:21:42;;;;;;;;;6.20;6.20;;;;;12.56;56.41;98154.81;5006014;28;8880;-75
2023/03/10 04:24:12;;;;;;;;;7.60;7.60;;;;;12.53;57.00;98153.19;5003642;28;8894;-78
2023/03/10 04:26:42;;;;;;;;;8.60;6.00;;;;;12.53;56.79;98149.69;5005567;28;8866;-76
2023/03/10 04:29:12;;;;;;;;;10.80;9.60;;;;;12.45;56.43;98150.09;5023505;28;8897;-78
2023/03/10 04:31:43;;;;;;;;;6.40;5.20;;;;;12.36;55.73;98147.09;4990998;28;8893;-77
2023/03/10 04:34:27;;;;;;;;;6.00;6.00;;;;;12.39;56.73;98145.16;5008554;28;8862;-77
2023/03/10 04:36:56;;;;;;;;;11.00;10.00;;;;;12.38;56.21;98137.31;5061158;28;8864;-76
2023/03/10 04:39:25;;;;;;;;;9.00;9.00;;;;;12.40;57.06;98130.19;5048173;28;8964;-75
2023/03/10 04:41:54;;;;;;;;;10.60;10.20;;;;;12.44;57.95;98122.03;5048296;28;8930;-75
2023/03/10 04:44:24;;;;;;;;;10.40;10.00;;;;;12.47;56.77;98124.50;5064619;28;9747;-76
2023/03/10 04:47:01;;;;;;;;;8.40;6.80;;;;;12.44;56.06;98113.28;5061252;28;8863;-77
2023/03/10 04:49:31;;;;;;;;;10.20;10.20;;;;;12.49;56.94;98114.75;5043529;28;8883;-76
2023/03/10 04:52:01;;;;;;;;;37.50;32.75;;;;;12.52;57.50;98104.03;5004214;28;8936;-78
2023/03/10 04:54:30;;;;;;;;;31.20;25.20;;;;;12.49;55.95;98108.63;5028125;28;8864;-80
2023/03/10 04:57:00;;;;;;;;;10.20;9.80;;;;;12.47;55.67;98103.44;5028124;28;9076;-77
2023/03/10 04:59:31;;;;;;;;;12.20;11.20;;;;;12.47;55.71;98102.59;5049457;28;8972;-77
2023/03/10 05:02:00;;;;;;;;;12.80;9.60;;;;;12.47;56.03;98094.69;5031949;28;8865;-76
2023/03/10 05:04:29;;;;;;;;;9.20;9.20;;;;;12.46;55.64;98101.72;5059267;28;8961;-75
2023/03/10 05:06:59;;;;;;;;;8.20;7.00;;;;;12.50;56.72;98098.00;5065799;28;8860;-79
2023/03/10 05:09:35;;;;;;;;;5.60;5.40;;;;;12.54;56.31;98098.66;5006889;28;8851;-76
2023/03/10 05:12:05;;;;;;;;;8.40;8.40;;;;;12.50;55.47;98105.91;5006544;28;8850;-78
2023/03/10 05:14:38;;;;;;;;;19.60;16.20;;;;;12.54;55.38;98090.75;5006329;28;8858;-77
2023/03/10 05:17:08;;;;;;;;;11.40;10.80;;;;;12.52;54.68;98093.50;4973900;28;8862;-76
2023/03/10 05:19:37;;;;;;;;;11.80;11.80;;;;;12.53;55.56;98099.63;4990380;28;8893;-78
2023/03/10 05:22:10;;;;;;;;;35.20;30.20;;;;;12.50;54.33;98095.38;4990090;28;8970;-79
2023/03/10 05:24:38;;;;;;;;;19.80;18.20;;;;;12.47;54.50;98092.88;4987225;28;8876;-76
2023/03/10 05:27:09;;;;;;;;;14.80;13.00;;;;;12.48;55.00;98094.56;4986441;28;9027;-77
2023/03/10 05:29:43;;;;;;;;;8.80;8.80;;;;;12.42;54.88;98091.41;4996070;28;9646;-78
2023/03/10 05:32:19;;;;;;;;;12.80;10.80;;;;;12.32;54.21;98088.41;4970225;28;8935;-76
2023/03/10 05:34:49;;;;;;;;;12.60;10.00;;;;;12.31;54.50;98084.91;4971062;28;8884;-76
2023/03/10 05:37:18;;;;;;;;;22.80;21.00;;;;;12.30;55.05;98083.22;4970282;28;8920;-78
2023/03/10 05:39:48;;;;;;;;;9.00;8.80;;;;;12.19;53.58;98077.66;5007938;28;8922;-78
2023/03/10 05:42:21;;;;;;;;;12.80;12.20;;;;;12.21;53.58;98077.56;4982588;28;8972;-77
2023/03/10 05:44:51;;;;;;;;;12.00;10.00;;;;;12.14;53.31;98070.00;5045466;28;8908;-76
2023/03/10 05:47:21;;;;;;;;;10.40;10.00;;;;;12.18;54.08;98078.56;5045411;28;8888;-77
2023/03/10 05:49:50;;;;;;;;;9.20;9.00;;;;;12.18;53.66;98069.81;5028409;28;8885;-76
2023/03/10 05:52:19;;;;;;;;;13.40;13.40;;;;;12.21;53.13;98067.03;5045617;28;8850;-76
2023/03/10 05:54:49;;;;;;;;;10.20;10.20;;;;;12.26;54.94;98068.50;5045104;28;8904;-79
2023/03/10 05:57:19;;;;;;;;;14.00;9.60;;;;;12.25;53.13;98063.31;5028034;28;9632;-76
2023/03/10 05:59:47;;;;;;;;;28.80;27.20;;;;;12.26;53.09;98055.31;5046137;28;8915;-77
2023/03/10 06:02:18;;;;;;;;;16.20;14.20;;;;;12.24;52.92;98051.06;5029022;28;8986;-77
2023/03/10 06:04:47;;;;;;;;;11.00;11.00;;;;;12.25;52.54;98039.59;5047831;28;8860;-77
2023/03/10 06:07:16;;;;;;;;;9.40;9.00;;;;;12.22;52.88;98043.25;5080575;28;8888;-77
2023/03/10 06:09:44;;;;;;;;;11.60;11.60;;;;;12.25;52.09;98040.44;5049408;28;8952;-78
2023/03/10 06:12:14;;;;;;;;;13.00;10.60;;;;;12.31;52.22;98037.47;5030932;28;8847;-79
2023/03/10 06:14:42;;;;;;;;;15.60;12.00;;;;;12.33;51.46;98040.03;5044048;28;8850;-77
2023/03/10 06:17:11;;;;;;;;;10.60;10.60;;;;;12.42;52.43;98038.72;5055486;28;8880;-78
2023/03/10 06:19:41;;;;;;;;;13.40;12.80;;;;;12.49;51.73;98034.81;5084244;28;8950;-76
2023/03/10 06:22:11;;;;;;;;;10.00;10.00;;;;;12.61;51.10;98035.94;5084222;28;8854;-77
2023/03/10 06:24:41;;;;;;;;;11.20;10.20;;;;;12.69;51.10;98044.28;5056511;28;8859;-77
2023/03/10 06:27:11;;;;;;;;;9.80;9.60;;;;;12.85;51.01;98034.66;5046960;28;8860;-77
2023/03/10 06:29:39;;;;;;;;;9.60;9.60;;;;;13.02;50.82;98028.47;5046636;28;8867;-78
2023/03/10 06:32:08;;;;;;;;;13.00;13.00;;;;;13.14;50.38;98024.28;5047819;28;8888;-76
2023/03/10 06:34:37;;;;;;;;;12.40;11.80;;;;;13.31;50.89;98032.09;5063893;28;9113;-76
2023/03/10 06:37:07;;;;;;;;;9.40;9.40;;;;;13.50;50.02;98026.63;5047582;28;9586;-76
2023/03/10 06:39:38;;;;;;;;;10.00;8.80;;;;;13.69;50.00;98022.91;5047047;28;8959;-78
2023/03/10 06:42:08;;;;;;;;;12.20;11.40;;;;;13.87;52.00;98015.75;5011372;28;8919;-71
2023/03/10 06:44:37;;;;;;;;;11.60;11.60;;;;;14.02;50.05;98014.84;5047472;28;8849;-69
2023/03/10 06:47:06;;;;;;;;;14.00;14.00;;;;;14.18;49.36;98020.03;5031977;28;8843;-69
2023/03/10 06:49:35;;;;;;;;;17.80;15.40;;;;;14.11;50.36;98021.38;5025688;28;9617;-73
2023/03/10 06:52:04;;;;;;;;;16.00;14.20;;;;;14.34;49.76;98019.09;5043372;28;8863;-72
2023/03/10 06:54:34;;;;;;;;;17.80;16.60;;;;;14.53;51.21;98021.47;5029995;28;8946;-81
2023/03/10 06:57:04;;;;;;;;;20.20;18.40;;;;;14.67;51.30;98017.03;5048102;28;8873;-78
2023/03/10 06:59:33;;;;;;;;;16.20;14.00;;;;;14.86;52.24;98016.75;4990627;28;8902;-78
2023/03/10 07:02:02;;;;;;;;;17.40;17.00;;;;;14.99;51.05;98018.66;5049022;28;8872;-79
2023/03/10 07:04:31;;;;;;;;;22.40;20.00;;;;;14.97;47.37;98018.75;5032750;28;8848;-80
2023/03/10 07:07:00;;;;;;;;;15.40;14.80;;;;;15.05;49.52;98015.59;5063276;28;8886;-80
2023/03/10 07:09:29;;;;;;;;;34.50;31.75;;;;;15.04;47.53;98020.06;5048318;28;8880;-79
2023/03/10 07:11:59;;;;;;;;;15.40;15.40;;;;;14.93;47.26;98021.69;5033390;28;8837;-79
2023/03/10 07:14:28;;;;;;;;;18.80;17.60;;;;;14.95;47.23;98025.09;5051341;28;8852;-78
2023/03/10 07:16:57;;;;;;;;;16.60;16.60;;;;;14.85;47.00;98015.06;5068930;28;8887;-81
2023/03/10 07:19:26;;;;;;;;;17.80;17.80;;;;;15.06;47.18;98009.38;5066207;28;9657;-81
2023/03/10 07:21:55;;;;;;;;;22.00;20.80;;;;;15.19;48.46;98009.44;5066503;28;8957;-80
2023/03/10 07:24:24;;;;;;;;;24.80;23.20;;;;;15.28;48.54;98008.81;5034007;28;8879;-80
2023/03/10 07:26:53;;;;;;;;;19.80;19.00;;;;;15.43;49.90;98007.84;5065983;28;8852;-81
2023/03/10 07:29:23;;;;;;;;;24.00;23.00;;;;;15.41;48.63;97999.13;5066807;28;8857;-78
2023/03/10 07:31:52;;;;;;;;;27.80;25.00;;;;;15.49;49.04;97996.00;5050240;28;8856;-81
2023/03/10 07:34:21;;;;;;;;;28.00;28.00;;;;;15.61;49.74;97989.91;5033488;28;8852;-81
2023/03/10 07:36:51;;;;;;;;;28.00;28.00;;;;;15.75;50.57;97994.25;5042541;28;9595;-80
2023/03/10 07:39:19;;;;;;;;;21.60;21.60;;;;;15.51;48.06;98001.16;5031556;28;8851;-78
2023/03/10 07:41:49;;;;;;;;;21.20;19.40;;;;;15.66;48.41;97992.22;5015716;28;8977;-82
2023/03/10 07:44:17;;;;;;;;;10.20;10.20;;;;;15.51;44.17;97990.56;5025748;28;8870;-81
2023/03/10 07:46:48;;;;;;;;;19.80;19.40;;;;;15.75;47.65;97980.19;5008769;28;8850;-80
2023/03/10 07:49:18;;;;;;;;;19.40;18.80;;;;;15.63;46.58;97981.84;5025166;28;8884;-80
2023/03/10 07:51:50;;;;;;;;;29.60;26.00;;;;;15.83;48.24;97980.50;5024810;28;8862;-79
2023/03/10 07:54:19;;;;;;;;;20.40;20.40;;;;;15.76;46.59;97980.09;5008645;28;8866;-79
2023/03/10 07:56:48;;;;;;;;;19.40;18.80;;;;;15.90;46.95;97973.84;5024820;28;8865;-80
2023/03/10 07:59:18;;;;;;;;;17.60;16.00;;;;;16.03;47.03;97971.19;5024293;28;8862;-79
2023/03/10 08:01:49;;;;;;;;;17.60;17.60;;;;;16.01;43.99;97967.81;5008559;28;8842;-79
2023/03/10 08:04:17;;;;;;;;;10.80;10.60;;;;;16.03;42.68;97972.03;4975642;28;8893;-79
2023/03/10 08:06:47;;;;;;;;;9.80;9.00;;;;;15.91;43.26;97972.06;5008649;28;8881;-79
2023/03/10 08:09:16;;;;;;;;;9.40;8.40;;;;;16.07;44.03;97972.69;5041692;28;8883;-82
2023/03/10 08:11:45;;;;;;;;;10.60;9.80;;;;;16.09;42.74;97969.94;5066226;28;8852;-79
2023/03/10 08:14:14;;;;;;;;;11.60;10.00;;;;;16.14;43.01;97968.66;5031845;28;9730;-80
2023/03/10 08:16:43;;;;;;;;;12.00;11.60;;;;;16.23;42.15;97972.50;5049281;28;8955;-80
2023/03/10 08:19:14;;;;;;;;;10.40;10.40;;;;;16.19;43.37;97981.59;5082359;28;9428;-79
2023/03/10 08:21:43;;;;;;;;;10.80;9.80;;;;;15.93;42.33;97984.25;5032501;28;8845;-80
2023/03/10 08:24:12;;;;;;;;;15.80;13.60;;;;;15.92;43.23;97982.53;5050521;28;8976;-81
2023/03/10 08:26:41;;;;;;;;;17.00;16.80;;;;;15.59;43.40;97991.78;5049999;28;8840;-79
2023/03/10 08:29:10;;;;;;;;;16.40;13.80;;;;;15.58;43.93;97984.75;5066178;28;9023;-81
2023/03/10 08:31:39;;;;;;;;;16.20;16.20;;;;;15.57;43.00;97980.44;5045188;28;8863;-80
2023/03/10 08:34:08;;;;;;;;;17.80;17.80;;;;;15.42;44.16;97982.31;5063496;28;8982;-80
2023/03/10 08:36:39;;;;;;;;;14.40;13.20;;;;;15.21;42.60;97987.22;5073393;28;8893;-77
2023/03/10 08:39:08;;;;;;;;;14.20;12.60;;;;;15.12;43.28;97993.09;5035030;28;8878;-79
2023/03/10 08:41:40;;;;;;;;;16.60;11.80;;;;;14.96;43.29;97982.66;5057701;28;8833;-80
2023/03/10 08:44:13;;;;;;;;;15.00;15.00;;;;;14.72;43.58;97989.47;4998951;28;8996;-79
2023/03/10 08:46:45;;;;;;;;;15.80;14.60;;;;;14.66;44.66;97986.25;5032480;28;8841;-80
2023/03/10 08:49:15;;;;;;;;;15.40;14.40;;;;;15.07;44.13;97987.25;5068139;28;8871;-79
2023/03/10 08:51:47;;;;;;;;;17.20;14.80;;;;;14.74;44.47;97998.19;5048461;28;8845;-78
2023/03/10 08:54:18;;;;;;;;;16.40;16.40;;;;;14.81;44.06;97992.41;5014062;28;8969;-79
2023/03/10 08:56:48;;;;;;;;;17.00;17.00;;;;;14.85;44.15;97985.13;5013994;28;8988;-79
2023/03/10 08:59:18;;;;;;;;;17.60;17.60;;;;;14.79;44.24;97990.78;5064544;28;9755;-80
2023/03/10 09:01:47;;;;;;;;;16.00;14.80;;;;;14.65;43.81;97992.47;5047688;28;8930;-79
2023/03/10 09:04:16;;;;;;;;;15.60;14.00;;;;;14.49;44.45;97989.13;5027955;28;9724;-81
2023/03/10 09:06:47;;;;;;;;;17.00;17.00;;;;;14.60;44.90;97993.72;5019309;28;8887;-80
2023/03/10 09:09:15;;;;;;;;;16.20;16.20;;;;;14.52;46.53;97996.00;5002316;28;8906;-79
2023/03/10 09:11:44;;;;;;;;;18.20;18.20;;;;;14.42;44.96;97993.06;5025050;28;8953;-80
2023/03/10 09:14:16;;;;;;;;;17.40;15.40;;;;;14.54;44.67;97983.53;5027663;28;8856;-80
2023/03/10 09:16:45;;;;;;;;;16.20;13.80;;;;;14.14;45.69;97980.69;5013407;28;8845;-82
2023/03/10 09:19:14;;;;;;;;;18.40;18.40;;;;;14.00;45.89;97981.53;5024749;28;9723;-80
2023/03/10 09:21:43;;;;;;;;;17.80;17.80;;;;;13.83;46.84;97977.25;5025975;28;8852;-79
2023/03/10 09:24:13;;;;;;;;;19.80;15.20;;;;;14.13;46.72;97989.56;5026097;28;8848;-80
2023/03/10 09:26:43;;;;;;;;;17.40;16.40;;;;;14.15;46.58;97991.19;4996211;28;8860;-79
2023/03/10 09:29:12;;;;;;;;;18.60;16.80;;;;;14.29;46.83;97983.25;5022044;28;8831;-79
2023/03/10 09:31:42;;;;;;;;;21.20;18.60;;;;;14.50;46.96;97977.56;5007983;28;9058;-79
2023/03/10 09:34:11;;;;;;;;;18.40;18.20;;;;;14.66;46.54;97983.63;5023454;28;8892;-81
2023/03/10 09:36:40;;;;;;;;;21.80;19.40;;;;;14.65;46.68;97986.34;5020174;28;8890;-79
2023/03/10 09:39:09;;;;;;;;;18.60;17.20;;;;;14.70;46.79;97989.56;5021918;28;8872;-80
2023/03/10 09:42:03;;;;;;;;;20.00;19.20;;;;;14.44;46.46;97985.91;5045394;28;8842;-78
2023/03/10 09:44:41;;;;;;;;;23.00;20.80;;;;;14.72;46.67;97984.19;5045558;28;8877;-79
2023/03/10 09:47:26;;;;;;;;;17.60;16.60;;;;;14.85;47.01;97977.19;5029183;28;8920;-79
2023/03/10 09:50:11;;;;;;;;;26.20;25.80;;;;;14.58;46.33;97982.38;5046787;28;8861;-80
2023/03/10 09:52:45;;;;;;;;;18.80;17.60;;;;;14.85;47.22;97977.19;5044234;28;9672;-80
2023/03/10 09:55:33;;;;;;;;;15.80;13.40;;;;;14.97;46.47;97978.22;5042650;28;8955;-80
2023/03/10 09:58:05;;;;;;;;;19.00;17.80;;;;;14.95;47.13;97977.47;5045517;28;8846;-79
2023/03/10 10:00:38;;;;;;;;;23.60;20.20;;;;;15.06;46.87;97977.63;5030118;28;8893;-79
2023/03/10 10:03:16;;;;;;;;;17.60;17.20;;;;;15.14;46.61;97983.25;5013878;28;8870;-79
2023/03/10 10:05:49;;;;;;;;;20.20;18.80;;;;;15.27;46.80;97988.59;5046565;28;8870;-82
2023/03/10 10:08:23;;;;;;;;;20.00;17.20;;;;;15.10;46.03;97981.75;5031909;28;8966;-80
2023/03/10 10:10:58;;;;;;;;;23.80;22.00;;;;;15.14;47.49;97977.97;5046002;28;10071;-81
2023/03/10 10:13:34;;;;;;;;;22.00;21.00;;;;;14.42;47.81;97982.50;5056005;28;9631;-81
2023/03/10 10:16:14;;;;;;;;;20.80;19.40;;;;;14.44;48.64;97977.97;5033943;28;8847;-79
2023/03/10 10:19:06;;;;;;;;;21.00;20.20;;;;;14.68;49.11;97975.59;5045856;28;8955;-80
2023/03/10 10:21:42;;;;;;;;;25.40;21.40;;;;;14.63;48.17;97975.88;5032746;28;8842;-79
2023/03/10 10:24:12;;;;;;;;;25.60;23.20;;;;;14.72;48.49;97963.03;5059732;28;8927;-79
2023/03/10 10:26:41;;;;;;;;;19.20;19.00;;;;;14.65;48.38;97959.91;5027796;28;8895;-79
2023/03/10 10:29:17;;;;;;;;;21.00;18.60;;;;;14.79;48.36;97961.69;5040949;28;8928;-80
2023/03/10 10:32:07;;;;;;;;;21.00;19.40;;;;;14.80;48.26;97952.81;5062108;28;8886;-80
2023/03/10 10:34:37;;;;;;;;;25.00;21.40;;;;;14.01;49.30;97962.09;5037630;28;8856;-80
2023/03/10 10:37:23;;;;;;;;;19.60;18.60;;;;;14.37;49.72;97963.44;5035810;28;8897;-79
2023/03/10 10:39:54;;;;;;;;;23.60;21.40;;;;;13.77;50.29;97962.59;5046329;28;8875;-80
2023/03/10 10:42:25;;;;;;;;;22.00;21.80;;;;;13.96;50.99;97964.16;5029542;28;8857;-80
2023/03/10 10:44:59;;;;;;;;;22.00;22.00;;;;;13.98;51.56;97962.25;5012385;28;8857;-79
2023/03/10 10:47:30;;;;;;;;;30.60;26.40;;;;;14.07;51.22;97961.72;5012461;28;9005;-80
2023/03/10 10:50:16;;;;;;;;;24.80;24.80;;;;;13.36;52.67;97952.66;4997157;28;8998;-79
2023/03/10 10:52:48;;;;;;;;;22.40;20.80;;;;;13.25;52.88;97945.38;4976919;28;8859;-77
2023/03/10 10:55:28;;;;;;;;;26.40;25.20;;;;;13.44;52.92;97946.94;5018254;28;8880;-81
2023/03/10 10:58:00;;;;;;;;;24.60;20.20;;;;;13.29;53.12;97946.03;5024634;28;8882;-81
2023/03/10 11:00:35;;;;;;;;;31.00;25.40;;;;;13.25;53.73;97945.38;5002135;28;8857;-79
2023/03/10 11:03:20;;;;;;;;;25.00;21.20;;;;;13.39;53.45;97946.34;5028284;28;8952;-79
2023/03/10 11:05:49;;;;;;;;;29.20;24.40;;;;;13.28;53.89;97942.56;5029863;28;9572;-79
2023/03/10 11:08:28;;;;;;;;;29.60;28.00;;;;;13.28;54.16;97939.91;5026601;28;8861;-79
2023/03/10 11:11:01;;;;;;;;;28.80;24.80;;;;;13.07;55.41;97936.72;5029348;28;8867;-79
2023/03/10 11:13:38;;;;;;;;;20.20;20.20;;;;;12.97;55.69;97929.41;5023021;28;8912;-80
2023/03/10 11:16:21;;;;;;;;;28.20;26.60;;;;;13.24;55.75;97930.50;5013883;28;9645;-78
2023/03/10 11:18:57;;;;;;;;;30.60;29.80;;;;;13.25;55.04;97926.06;5031917;28;8866;-78
2023/03/10 11:21:29;;;;;;;;;31.80;30.60;;;;;13.21;55.36;97924.53;5046491;28;8959;-79
2023/03/10 11:24:06;;;;;;;;;31.40;29.00;;;;;13.40;55.67;97911.13;5030357;28;8862;-80
2023/03/10 11:26:51;;;;;;;;;29.60;27.20;;;;;13.50;55.02;97915.75;5029117;28;8877;-81
2023/03/10 11:29:43;;;;;;;;;28.20;27.40;;;;;13.59;55.71;97900.31;5041756;28;8854;-80
2023/03/10 11:32:24;;;;;;;;;31.60;27.80;;;;;13.60;55.65;97899.38;5061692;28;8893;-80
2023/03/10 11:34:53;;;;;;;;;26.20;23.60;;;;;12.93;56.85;97897.94;5028386;28;8884;-79
2023/03/10 11:37:30;;;;;;;;;26.80;24.00;;;;;13.08;56.63;97890.09;5001886;28;8895;-81
2023/03/10 11:40:14;;;;;;;;;26.20;25.20;;;;;13.29;56.75;97885.34;5010433;28;8920;-79
2023/03/10 11:42:53;;;;;;;;;26.80;22.60;;;;;12.77;57.62;97880.41;5037000;28;8882;-79
2023/03/10 11:45:28;;;;;;;;;20.80;20.20;;;;;13.03;58.27;97877.16;4972452;28;8849;-80
2023/03/10 11:48:16;;;;;;;;;26.80;24.80;;;;;13.18;58.74;97870.13;4988149;28;9653;-78
2023/03/10 11:50:51;;;;;;;;;30.60;28.40;;;;;13.20;59.30;97873.53;4988486;28;8922;-77
2023/03/10 11:53:31;;;;;;;;;29.80;27.40;;;;;13.33;59.21;97871.03;4988695;28;8942;-78